Time;durP1;ratioP1;P1;durP2;ratioP2;P2;SDS_P1;SDS_P2;PMS_P1;PMS_P2;Temp;Humidity;BMP_temperature;BMP_pressure;BME280_temperature;BME280_humidity;BME280_pressure;Samples;Min_cycle;Max_cycle;Signal;HPM_P1;HPM_P2
2021/08/03 00:02:24;;;;;;;3.77;1.90;;;;;;;12.67;87.14;96568.84;3566371;40;20826;-70
2021/08/03 00:04:56;;;;;;;7.23;1.23;;;;;;;12.65;86.34;96565.50;3561685;40;20484;-69
2021/08/03 00:07:34;;;;;;;2.63;1.70;;;;;;;12.65;86.34;96561.09;3566924;40;20445;-70
2021/08/03 00:10:07;;;;;;;3.73;1.30;;;;;;;12.65;86.48;96552.38;3564051;39;20853;-72
2021/08/03 00:12:35;;;;;;;6.20;2.23;;;;;;;12.65;86.64;96552.38;3567022;40;20539;-71
2021/08/03 00:15:05;;;;;;;3.90;1.43;;;;;;;12.58;87.42;96536.22;3568577;39;20953;-72
2021/08/03 00:17:34;;;;;;;2.20;1.53;;;;;;;12.73;87.56;96549.16;3565365;40;20540;-73
2021/08/03 00:20:02;;;;;;;7.37;1.37;;;;;;;12.70;85.80;96539.72;3564033;39;20900;-70
2021/08/03 00:22:33;;;;;;;2.80;1.10;;;;;;;12.80;85.65;96529.28;3567416;40;21041;-72
2021/08/03 00:25:06;;;;;;;2.43;1.50;;;;;;;12.86;85.40;96539.34;3570067;39;20456;-75
2021/08/03 00:27:35;;;;;;;4.60;1.70;;;;;;;12.87;85.28;96535.75;3567997;40;20787;-70
2021/08/03 00:30:08;;;;;;;4.60;1.77;;;;;;;12.78;85.72;96526.81;3568164;39;20462;-70
2021/08/03 00:32:36;;;;;;;6.10;1.83;;;;;;;12.80;84.86;96531.94;3563219;40;20437;-69
2021/08/03 00:35:05;;;;;;;2.33;1.30;;;;;;;12.84;85.33;96531.59;3567981;40;20866;-71
2021/08/03 00:37:34;;;;;;;2.97;1.53;;;;;;;12.84;84.47;96528.13;3569307;40;21230;-71
2021/08/03 00:40:05;;;;;;;3.27;1.63;;;;;;;12.86;84.89;96524.41;3565348;39;20475;-73
2021/08/03 00:42:33;;;;;;;3.83;1.20;;;;;;;12.83;85.05;96531.69;3568452;40;20477;-72
2021/08/03 00:45:01;;;;;;;2.60;1.20;;;;;;;12.78;86.02;96531.22;3565416;39;20477;-72
2021/08/03 00:47:30;;;;;;;3.83;1.30;;;;;;;12.84;86.20;96533.38;3564975;40;20773;-74
2021/08/03 00:49:58;;;;;;;2.07;1.40;;;;;;;12.84;85.96;96528.13;3567599;39;20961;-74
2021/08/03 00:52:28;;;;;;;1.70;1.13;;;;;;;12.79;85.32;96528.47;3566356;40;20938;-75
2021/08/03 00:54:56;;;;;;;6.97;1.43;;;;;;;12.84;85.77;96531.59;3561042;40;20477;-70
2021/08/03 00:57:24;;;;;;;3.80;1.40;;;;;;;12.79;85.44;96538.97;3566526;40;20463;-70
2021/08/03 00:59:52;;;;;;;4.13;1.93;;;;;;;12.83;85.55;96532.53;3568141;39;20929;-73
2021/08/03 01:02:20;;;;;;;1.73;1.20;;;;;;;12.86;85.05;96534.91;3565819;40;20812;-71
2021/08/03 01:04:49;;;;;;;2.90;1.20;;;;;;;12.81;85.57;96526.56;3568863;39;20707;-70
2021/08/03 01:07:28;;;;;;;2.70;1.73;;;;;;;12.67;86.28;96529.44;3566661;40;20902;-73
2021/08/03 01:10:06;;;;;;;1.73;1.20;;;;;;;12.82;86.32;96522.97;3563421;39;20851;-71
2021/08/03 01:12:46;;;;;;;2.30;1.30;;;;;;;12.83;86.77;96532.53;3565524;40;20438;-71
2021/08/03 01:15:18;;;;;;;2.70;1.77;;;;;;;12.83;86.58;96523.81;3565735;40;20923;-72
2021/08/03 01:17:52;;;;;;;9.00;1.40;;;;;;;12.83;86.83;96527.28;3567704;40;20637;-72
2021/08/03 01:20:28;;;;;;;3.07;1.43;;;;;;;12.84;86.40;96528.94;3564904;40;20523;-72
2021/08/03 01:23:33;;;;;;;3.63;1.30;;;;;;;12.78;85.44;96525.94;3564760;40;20529;-70
2021/08/03 01:26:14;;;;;;;2.43;1.13;;;;;;;12.83;84.99;96524.63;3566143;40;20548;-72
2021/08/03 01:28:46;;;;;;;4.33;1.40;;;;;;;12.80;85.95;96532.78;3568573;39;20768;-73
2021/08/03 01:31:21;;;;;;;1.47;1.20;;;;;;;12.71;86.17;96528.25;3566590;40;20525;-72
2021/08/03 01:34:01;;;;;;;3.03;1.60;;;;;;;12.70;86.59;96523.09;3566033;39;20468;-71
2021/08/03 01:36:30;;;;;;;4.60;1.37;;;;;;;12.71;86.88;96517.72;3566038;40;20482;-72
2021/08/03 01:38:58;;;;;;;1.40;1.17;;;;;;;12.78;86.63;96523.31;3570039;39;20664;-73
2021/08/03 01:41:28;;;;;;;7.70;1.10;;;;;;;12.74;86.49;96529.78;3567285;40;20483;-73
2021/08/03 01:43:59;;;;;;;2.00;1.50;;;;;;;12.71;86.86;96520.34;3566982;39;20537;-73
2021/08/03 01:46:28;;;;;;;4.00;1.70;;;;;;;12.63;87.06;96528.84;3565523;40;20461;-73
2021/08/03 01:49:00;;;;;;;5.70;1.67;;;;;;;12.72;86.95;96519.41;3567345;39;20462;-71
2021/08/03 01:51:30;;;;;;;3.23;1.10;;;;;;;12.71;87.24;96519.53;3567878;40;20574;-71
2021/08/03 01:53:59;;;;;;;3.87;1.27;;;;;;;12.70;87.42;96528.34;3568947;39;20555;-72
2021/08/03 01:56:28;;;;;;;4.53;1.20;;;;;;;12.75;87.60;96519.16;3565418;40;20453;-71
2021/08/03 01:58:58;;;;;;;6.40;1.47;;;;;;;12.74;87.41;96514.88;3565002;39;20557;-71
2021/08/03 02:01:28;;;;;;;1.50;1.00;;;;;;;12.74;87.12;96525.38;3567409;40;20460;-73
2021/08/03 02:03:57;;;;;;;3.10;1.17;;;;;;;12.76;87.73;96523.47;3570863;39;20465;-71
2021/08/03 02:06:27;;;;;;;2.17;1.27;;;;;;;12.73;87.49;96520.25;3569182;40;20557;-71
2021/08/03 02:08:56;;;;;;;2.40;1.50;;;;;;;12.82;86.89;96524.78;3568318;39;20482;-72
2021/08/03 02:11:25;;;;;;;3.53;1.47;;;;;;;12.75;87.16;96519.16;3565263;40;20449;-72
2021/08/03 02:13:53;;;;;;;11.70;1.73;;;;;;;12.76;87.03;96515.59;3563926;40;20776;-71
2021/08/03 02:16:24;;;;;;;2.37;1.50;;;;;;;12.75;87.53;96499.94;3570894;40;20675;-73
2021/08/03 02:18:52;;;;;;;7.87;1.83;;;;;;;12.75;87.21;96507.81;3568734;39;20461;-71
2021/08/03 02:21:22;;;;;;;9.63;1.57;;;;;;;12.64;87.08;96499.00;3566476;40;20472;-71
2021/08/03 02:23:52;;;;;;;2.50;1.30;;;;;;;12.62;87.41;96503.53;3562233;39;20848;-71
2021/08/03 02:26:20;;;;;;;4.53;1.33;;;;;;;12.12;89.41;96500.41;3567690;40;20460;-70
2021/08/03 02:28:48;;;;;;;1.70;1.40;;;;;;;12.22;88.92;96493.50;3570870;39;20768;-70
2021/08/03 02:31:21;;;;;;;5.80;1.63;;;;;;;12.35;88.18;96496.03;3564000;40;21108;-71
2021/08/03 02:33:56;;;;;;;5.03;1.73;;;;;;;12.40;87.39;96491.22;3567693;39;20489;-74
2021/08/03 02:36:28;;;;;;;4.97;1.57;;;;;;;12.33;87.46;96495.31;3557488;40;20855;-70
2021/08/03 02:39:02;;;;;;;5.23;1.50;;;;;;;12.34;87.90;96496.97;3567703;39;20845;-71
2021/08/03 02:41:32;;;;;;;7.70;1.53;;;;;;;12.35;87.55;96498.66;3570332;40;20951;-73
2021/08/03 02:44:02;;;;;;;3.10;1.20;;;;;;;12.10;88.52;96493.63;3567133;39;21076;-72
2021/08/03 02:46:30;;;;;;;9.73;1.83;;;;;;;12.07;89.15;96489.41;3566408;40;20447;-73
2021/08/03 02:49:04;;;;;;;4.00;1.30;;;;;;;12.06;88.81;96491.22;3564687;39;20491;-73
2021/08/03 02:51:34;;;;;;;1.50;1.20;;;;;;;12.02;89.26;96491.56;3566871;40;20505;-71
2021/08/03 02:54:07;;;;;;;6.00;1.10;;;;;;;12.03;88.78;96482.72;3573000;39;20558;-71
2021/08/03 02:56:36;;;;;;;5.57;1.53;;;;;;;12.05;88.63;96486.06;3568661;40;20532;-71
2021/08/03 02:59:06;;;;;;;2.20;1.33;;;;;;;12.19;87.42;96485.88;3558044;40;20787;-71
2021/08/03 03:01:37;;;;;;;5.10;1.23;;;;;;;12.22;87.16;96479.53;3564956;40;20504;-72
2021/08/03 03:04:23;;;;;;;5.10;1.70;;;;;;;12.29;87.61;96485.13;3565607;40;20844;-72
2021/08/03 03:06:55;;;;;;;3.20;1.20;;;;;;;12.32;85.82;96482.28;3565841;40;20737;-72
2021/08/03 03:09:27;;;;;;;6.93;1.40;;;;;;;12.37;86.06;96470.47;3571241;39;20851;-73
2021/08/03 03:11:57;;;;;;;2.47;1.30;;;;;;;12.33;86.64;96469.03;3571230;40;20889;-71
2021/08/03 03:14:27;;;;;;;7.90;1.40;;;;;;;12.41;86.35;96469.28;3566118;40;20690;-72
2021/08/03 03:16:59;;;;;;;3.70;1.30;;;;;;;12.33;86.96;96481.31;3570188;40;20504;-71
2021/08/03 03:19:33;;;;;;;6.70;1.80;;;;;;;12.34;87.25;96478.56;3568648;39;21074;-72
2021/08/03 03:22:04;;;;;;;2.30;1.50;;;;;;;12.27;87.18;96469.53;3569198;40;20473;-73
2021/08/03 03:24:33;;;;;;;5.60;1.50;;;;;;;12.26;87.23;96470.47;3565599;39;20559;-73
2021/08/03 03:27:03;;;;;;;2.77;1.20;;;;;;;12.25;87.38;96471.41;3561935;40;20936;-71
2021/08/03 03:29:32;;;;;;;3.80;1.10;;;;;;;12.20;87.45;96466.53;3567312;39;20482;-72
2021/08/03 03:32:00;;;;;;;5.00;1.73;;;;;;;12.16;87.38;96456.38;3570529;39;20453;-71
2021/08/03 03:34:33;;;;;;;10.60;1.70;;;;;;;12.15;87.60;96459.94;3563881;39;20540;-71
2021/08/03 03:37:01;;;;;;;10.00;1.17;;;;;;;12.08;87.71;96459.59;3564846;40;20492;-70
2021/08/03 03:39:30;;;;;;;11.10;1.60;;;;;;;12.11;87.89;96458.53;3568765;39;20474;-70
2021/08/03 03:42:01;;;;;;;10.13;1.47;;;;;;;12.05;87.89;96463.31;3569663;40;20526;-72
2021/08/03 03:44:30;;;;;;;7.13;2.50;;;;;;;11.99;88.30;96460.28;3568437;40;21154;-70
2021/08/03 03:47:02;;;;;;;4.50;1.50;;;;;;;11.96;88.29;96456.13;3571815;40;20541;-71
2021/08/03 03:49:38;;;;;;;11.10;1.57;;;;;;;11.96;88.24;96448.25;3572140;39;20701;-72
2021/08/03 03:52:07;;;;;;;16.23;1.40;;;;;;;12.03;87.85;96454.69;3572594;40;20846;-72
2021/08/03 03:54:40;;;;;;;5.70;1.47;;;;;;;12.01;87.68;96451.34;3568472;39;20473;-72
2021/08/03 03:57:11;;;;;;;4.33;1.33;;;;;;;12.12;86.78;96449.72;3568531;40;20484;-72
2021/08/03 03:59:45;;;;;;;5.00;1.50;;;;;;;12.09;86.36;96449.94;3566802;39;20470;-72
2021/08/03 04:02:14;;;;;;;5.60;1.67;;;;;;;12.09;86.45;96448.13;3567942;40;20493;-69
2021/08/03 04:04:44;;;;;;;2.97;1.30;;;;;;;12.11;85.69;96443.59;3560628;40;20538;-71
2021/08/03 04:07:12;;;;;;;3.10;1.30;;;;;;;12.02;86.04;96445.16;3565246;40;20527;-71
2021/08/03 04:09:41;;;;;;;7.47;1.30;;;;;;;11.99;86.38;96450.63;3569257;39;21152;-70
2021/08/03 04:12:09;;;;;;;2.30;1.40;;;;;;;11.99;86.36;96445.38;3570269;40;20446;-70
2021/08/03 04:14:37;;;;;;;2.50;1.20;;;;;;;12.10;85.81;96447.19;3568132;39;20815;-70
2021/08/03 04:17:08;;;;;;;3.87;1.47;;;;;;;12.19;85.48;96446.50;3567310;40;20456;-72
2021/08/03 04:19:36;;;;;;;6.60;1.23;;;;;;;12.16;85.68;96457.22;3570958;39;20562;-71
2021/08/03 04:22:05;;;;;;;2.47;1.73;;;;;;;12.18;85.08;96460.56;3568974;40;20520;-71
2021/08/03 04:24:33;;;;;;;4.93;1.53;;;;;;;12.22;85.20;96458.53;3565988;39;20451;-70
2021/08/03 04:27:02;;;;;;;3.33;1.13;;;;;;;12.24;85.52;96448.75;3567130;40;20877;-73
2021/08/03 04:29:30;;;;;;;2.47;1.40;;;;;;;12.25;85.99;96460.91;3568105;39;20841;-74
2021/08/03 04:31:58;;;;;;;5.43;1.60;;;;;;;12.16;86.54;96454.59;3573171;40;20842;-74
2021/08/03 04:34:26;;;;;;;4.57;1.50;;;;;;;12.13;86.81;96457.44;3567096;39;20695;-73
2021/08/03 04:36:54;;;;;;;9.43;1.77;;;;;;;12.12;87.31;96455.78;3560829;40;20489;-71
2021/08/03 04:39:24;;;;;;;5.43;1.27;;;;;;;12.15;86.96;96452.94;3563232;39;20966;-70
2021/08/03 04:41:51;;;;;;;13.77;1.30;;;;;;;12.23;86.52;96447.91;3567211;40;20861;-72
2021/08/03 04:44:19;;;;;;;3.73;1.53;;;;;;;12.19;86.42;96451.75;3563695;40;20448;-71
2021/08/03 04:46:47;;;;;;;4.93;1.33;;;;;;;12.20;86.65;96453.41;3569024;40;20760;-73
2021/08/03 04:49:15;;;;;;;8.27;1.70;;;;;;;12.13;87.25;96451.34;3566318;40;20779;-73
2021/08/03 04:51:43;;;;;;;2.70;1.27;;;;;;;11.99;88.02;96450.63;3565093;40;20467;-70
2021/08/03 04:54:11;;;;;;;4.87;1.20;;;;;;;12.08;87.49;96454.34;3561370;39;20473;-74
2021/08/03 04:56:40;;;;;;;3.97;1.40;;;;;;;11.53;89.23;96443.63;3570525;40;20545;-71
2021/08/03 04:59:08;;;;;;;4.10;1.37;;;;;;;11.84;88.26;96436.88;3568660;39;20473;-71
2021/08/03 05:01:36;;;;;;;4.03;1.40;;;;;;;11.61;89.85;96443.88;3567659;40;20826;-73
2021/08/03 05:04:05;;;;;;;4.40;1.40;;;;;;;11.91;88.79;96439.88;3562767;39;20878;-73
2021/08/03 05:06:33;;;;;;;5.33;1.87;;;;;;;12.14;87.92;96434.66;3569722;40;20446;-73
2021/08/03 05:09:01;;;;;;;2.60;1.60;;;;;;;12.29;85.73;96432.63;3567950;39;20719;-73
2021/08/03 05:11:28;;;;;;;3.47;1.47;;;;;;;12.37;84.01;96430.25;3570470;40;20827;-73
2021/08/03 05:13:58;;;;;;;2.70;1.33;;;;;;;12.61;83.20;96441.44;3567088;39;20449;-73
2021/08/03 05:16:29;;;;;;;7.33;1.20;;;;;;;12.68;82.57;96433.88;3556509;40;20482;-74
2021/08/03 05:18:57;;;;;;;3.87;1.37;;;;;;;12.69;83.13;96435.56;3561992;40;20474;-74
2021/08/03 05:21:25;;;;;;;2.03;1.40;;;;;;;12.58;85.21;96435.59;3567625;40;20450;-75
2021/08/03 05:23:53;;;;;;;1.50;1.33;;;;;;;12.63;84.48;96430.81;3567101;39;20856;-75
2021/08/03 05:26:21;;;;;;;8.33;1.53;;;;;;;12.70;84.12;96433.78;3567634;40;20555;-75
2021/08/03 05:28:49;;;;;;;5.73;1.40;;;;;;;12.68;83.94;96436.50;3568433;39;20864;-74
2021/08/03 05:31:18;;;;;;;1.63;1.20;;;;;;;12.72;82.31;96427.47;3562853;40;21097;-74
2021/08/03 05:33:50;;;;;;;2.13;1.60;;;;;;;12.76;82.87;96423.63;3572348;39;20692;-74
2021/08/03 05:36:17;;;;;;;4.83;1.40;;;;;;;12.94;81.03;96428.34;3568532;40;20942;-75
2021/08/03 05:38:45;;;;;;;7.90;2.50;;;;;;;13.13;80.19;96425.91;3568505;39;20458;-74
2021/08/03 05:41:13;;;;;;;7.80;1.20;;;;;;;13.17;79.99;96427.31;3565258;40;20720;-74
2021/08/03 05:43:41;;;;;;;3.30;1.23;;;;;;;13.31;78.85;96422.72;3561449;40;20909;-74
2021/08/03 05:46:09;;;;;;;2.60;1.20;;;;;;;13.15;80.14;96423.13;3569044;40;20919;-74
2021/08/03 05:48:38;;;;;;;2.60;1.20;;;;;;;13.42;79.27;96430.56;3568536;39;20680;-73
2021/08/03 05:51:06;;;;;;;5.17;1.40;;;;;;;13.71;81.50;96432.59;3567391;40;20451;-75
2021/08/03 05:53:34;;;;;;;4.00;1.27;;;;;;;13.77;80.51;96437.31;3557746;40;20588;-74
2021/08/03 05:56:03;;;;;;;2.23;1.03;;;;;;;13.81;77.75;96436.91;3565914;39;20543;-74
2021/08/03 05:58:30;;;;;;;7.50;1.10;;;;;;;13.87;78.69;96435.56;3568232;39;20464;-76
2021/08/03 06:00:58;;;;;;;3.60;1.40;;;;;;;13.96;80.14;96432.16;3561373;40;20771;-74
2021/08/03 06:03:27;;;;;;;6.67;1.50;;;;;;;13.77;80.56;96439.94;3564120;39;20763;-74
2021/08/03 06:05:56;;;;;;;7.87;1.50;;;;;;;13.84;79.29;96431.41;3568939;40;20733;-74
2021/08/03 06:08:27;;;;;;;3.47;1.17;;;;;;;14.04;77.09;96432.34;3567876;39;20445;-74
2021/08/03 06:10:55;;;;;;;2.90;1.37;;;;;;;13.94;77.96;96418.31;3570001;40;20436;-74
2021/08/03 06:13:26;;;;;;;2.90;1.10;;;;;;;14.34;76.51;96425.41;3567843;39;21132;-73
2021/08/03 06:15:54;;;;;;;1.90;1.20;;;;;;;14.37;77.17;96432.22;3565683;40;20798;-74
2021/08/03 06:18:29;;;;;;;4.97;1.47;;;;;;;14.53;76.43;96427.28;3563398;40;20894;-73
2021/08/03 06:20:59;;;;;;;5.73;2.67;;;;;;;14.87;74.79;96418.22;3562410;40;20488;-73
2021/08/03 06:23:27;;;;;;;11.10;3.27;;;;;;;14.98;73.17;96431.31;3567566;40;20801;-72
2021/08/03 06:25:58;;;;;;;3.03;1.70;;;;;;;14.76;75.09;96437.63;3570856;40;20918;-73
2021/08/03 06:28:27;;;;;;;2.03;1.33;;;;;;;14.95;73.15;96426.28;3565742;39;20888;-73
2021/08/03 06:30:55;;;;;;;3.53;1.20;;;;;;;15.32;72.95;96438.81;3565708;40;20825;-73
2021/08/03 06:33:24;;;;;;;2.60;1.03;;;;;;;15.59;72.11;96441.56;3567170;39;20450;-73
2021/08/03 06:35:53;;;;;;;8.87;1.27;;;;;;;15.69;71.32;96443.38;3557868;40;21194;-72
2021/08/03 06:38:22;;;;;;;1.20;1.00;;;;;;;15.91;70.38;96440.44;3567982;39;20504;-72
2021/08/03 06:40:55;;;;;;;1.27;0.90;;;;;;;15.63;70.02;96445.59;3562662;40;20452;-74
2021/08/03 06:43:26;;;;;;;5.83;1.20;;;;;;;15.36;70.44;96438.38;3562907;40;20454;-73
2021/08/03 06:45:58;;;;;;;1.83;0.90;;;;;;;15.18;69.66;96438.25;3566569;40;20472;-77
2021/08/03 06:48:32;;;;;;;2.87;1.90;;;;;;;15.05;72.48;96436.84;3562527;40;20535;-70
2021/08/03 06:51:04;;;;;;;7.60;2.47;;;;;;;14.79;74.45;96440.00;3569345;40;20540;-71
2021/08/03 06:53:37;;;;;;;2.30;1.00;;;;;;;15.03;73.01;96440.47;3568805;39;20582;-69
2021/08/03 06:56:06;;;;;;;18.43;8.03;;;;;;;15.11;73.23;96437.16;3569219;40;20504;-71
2021/08/03 06:58:39;;;;;;;18.50;7.23;;;;;;;15.15;72.15;96435.91;3567558;39;20822;-69
2021/08/03 07:01:16;;;;;;;2.03;1.50;;;;;;;15.15;72.89;96441.19;3570809;40;21124;-70
2021/08/03 07:03:48;;;;;;;6.40;1.00;;;;;;;15.10;74.23;96442.56;3567876;39;21124;-70
2021/08/03 07:06:20;;;;;;;3.80;1.00;;;;;;;15.38;73.13;96435.63;3562946;40;20455;-70
2021/08/03 07:08:52;;;;;;;2.03;1.10;;;;;;;15.19;73.68;96439.06;3570310;40;20847;-73
2021/08/03 07:11:21;;;;;;;2.70;1.67;;;;;;;15.41;73.07;96432.72;3565508;40;20853;-69
2021/08/03 07:13:49;;;;;;;1.50;1.20;;;;;;;15.65;72.24;96434.06;3569788;39;20650;-71
2021/08/03 07:16:18;;;;;;;1.70;1.00;;;;;;;15.78;71.36;96430.19;3566118;40;20765;-71
2021/08/03 07:18:49;;;;;;;8.23;1.40;;;;;;;16.09;70.01;96437.06;3570866;39;20469;-71
2021/08/03 07:21:18;;;;;;;1.70;1.10;;;;;;;16.26;70.05;96438.94;3563522;40;20786;-73
2021/08/03 07:23:50;;;;;;;2.23;1.20;;;;;;;16.30;69.37;96439.50;3567524;39;20450;-73
2021/08/03 07:26:18;;;;;;;3.30;1.07;;;;;;;16.33;69.26;96433.94;3566940;40;20453;-73
2021/08/03 07:28:46;;;;;;;3.70;1.20;;;;;;;16.37;69.61;96444.06;3568036;39;20581;-71
2021/08/03 07:31:14;;;;;;;1.83;1.20;;;;;;;16.51;69.50;96442.75;3568150;39;20850;-73
2021/08/03 07:33:42;;;;;;;2.80;1.17;;;;;;;16.57;69.02;96442.16;3566376;39;20473;-71
2021/08/03 07:36:12;;;;;;;2.43;1.60;;;;;;;16.68;69.08;96438.50;3560482;40;20950;-71
2021/08/03 07:38:41;;;;;;;5.13;2.07;;;;;;;17.05;68.66;96431.47;3565799;39;20855;-72
2021/08/03 07:41:11;;;;;;;1.43;1.00;;;;;;;17.34;65.30;96426.78;3567225;40;20454;-71
2021/08/03 07:43:41;;;;;;;2.13;1.30;;;;;;;17.44;64.17;96428.53;3567419;39;20462;-71
2021/08/03 07:46:09;;;;;;;2.03;1.07;;;;;;;17.44;65.56;96437.31;3571718;40;20544;-71
2021/08/03 07:48:37;;;;;;;1.37;1.10;;;;;;;17.36;66.10;96438.06;3570304;39;20482;-72
2021/08/03 07:51:06;;;;;;;2.60;0.90;;;;;;;17.32;66.56;96442.00;3560930;40;20793;-72
2021/08/03 07:53:35;;;;;;;4.70;1.37;;;;;;;16.94;66.20;96440.47;3548125;40;20656;-71
2021/08/03 07:56:04;;;;;;;1.80;1.00;;;;;;;16.88;67.77;96444.53;3546060;40;20867;-72
2021/08/03 07:58:33;;;;;;;1.20;1.03;;;;;;;17.04;67.77;96451.00;3548580;40;20537;-71
2021/08/03 08:01:01;;;;;;;2.20;1.40;;;;;;;16.98;67.23;96447.13;3585931;23;20548;-69
2021/08/03 08:03:30;;;;;;;5.27;2.20;;;;;;;16.78;66.89;96455.13;3570668;39;20517;-73
2021/08/03 08:05:59;;;;;;;4.53;1.60;;;;;;;16.63;67.54;96451.31;3569316;39;20905;-71
2021/08/03 08:08:27;;;;;;;4.03;1.93;;;;;;;16.72;68.65;96455.72;3564871;40;20447;-71
2021/08/03 08:10:55;;;;;;;15.47;6.90;;;;;;;17.10;67.19;96459.16;3568292;40;20434;-73
2021/08/03 08:13:23;;;;;;;1.57;1.47;;;;;;;17.02;67.04;96469.66;3568238;40;20530;-70
2021/08/03 08:15:53;;;;;;;3.00;1.60;;;;;;;17.12;66.60;96453.72;3566569;40;20834;-71
2021/08/03 08:18:21;;;;;;;2.30;1.43;;;;;;;17.18;66.60;96464.53;3570308;39;21084;-72
2021/08/03 08:20:49;;;;;;;2.77;1.33;;;;;;;17.41;65.55;96469.38;3570134;40;20473;-71
2021/08/03 08:23:17;;;;;;;43.20;25.20;;;;;;;17.45;66.15;96462.81;3568789;39;20963;-72
2021/08/03 08:25:45;;;;;;;4.37;1.67;;;;;;;17.69;65.19;96466.66;3569899;40;20921;-70
2021/08/03 08:28:13;;;;;;;1.23;0.90;;;;;;;17.47;65.09;96471.44;3569602;39;20462;-71
2021/08/03 08:30:41;;;;;;;4.43;1.30;;;;;;;17.67;66.43;96466.78;3567672;40;20452;-75
2021/08/03 08:33:11;;;;;;;1.47;1.10;;;;;;;17.48;67.10;96473.06;3572210;39;20500;-73
2021/08/03 08:35:40;;;;;;;3.63;0.90;;;;;;;16.97;67.49;96474.53;3569248;40;20687;-72
2021/08/03 08:38:08;;;;;;;1.77;1.17;;;;;;;17.04;69.34;96472.97;3567039;39;20896;-69
2021/08/03 08:40:40;;;;;;;1.47;1.10;;;;;;;16.86;69.73;96477.41;3567305;40;20439;-69
2021/08/03 08:43:08;;;;;;;3.60;1.10;;;;;;;16.31;71.65;96479.00;3568231;39;20838;-70
2021/08/03 08:45:37;;;;;;;4.60;1.20;;;;;;;16.09;71.44;96474.03;3561672;40;20788;-71
2021/08/03 08:48:06;;;;;;;15.80;3.20;;;;;;;15.95;76.34;96472.69;3567248;39;21244;-69
2021/08/03 08:50:36;;;;;;;8.13;2.57;;;;;;;15.57;81.07;96483.09;3568222;40;20543;-68
2021/08/03 08:53:04;;;;;;;3.37;1.60;;;;;;;15.07;82.40;96488.47;3572138;39;20445;-68
2021/08/03 08:55:32;;;;;;;2.53;1.40;;;;;;;14.81;83.78;96483.69;3565046;40;20450;-72
2021/08/03 08:58:00;;;;;;;2.27;1.13;;;;;;;14.78;83.58;96504.25;3565655;40;20447;-70
2021/08/03 09:00:28;;;;;;;2.33;1.00;;;;;;;14.43;83.85;96508.91;3567137;40;20928;-68
2021/08/03 09:02:57;;;;;;;2.10;1.23;;;;;;;14.50;82.13;96521.56;3564640;40;20811;-71
2021/08/03 09:05:32;;;;;;;4.07;1.17;;;;;;;14.03;83.38;96528.13;3566910;40;20693;-71
2021/08/03 09:08:03;;;;;;;2.20;0.90;;;;;;;14.02;83.82;96517.69;3565485;39;20473;-73
2021/08/03 09:10:37;;;;;;;2.87;1.50;;;;;;;13.88;84.90;96524.13;3564491;40;20461;-70
2021/08/03 09:13:08;;;;;;;5.20;1.53;;;;;;;13.56;88.20;96505.72;3566901;40;20483;-71
2021/08/03 09:15:37;;;;;;;6.77;1.60;;;;;;;13.76;87.76;96497.03;3569942;40;20430;-68
2021/08/03 09:18:27;;;;;;;3.77;1.13;;;;;;;14.23;86.23;96491.38;3567544;39;20928;-69
2021/08/03 09:20:57;;;;;;;2.90;1.10;;;;;;;14.26;85.64;96498.16;3566328;40;20908;-70
2021/08/03 09:23:42;;;;;;;2.97;1.23;;;;;;;14.48;85.11;96511.16;3562019;39;20557;-71
2021/08/03 09:26:11;;;;;;;1.17;1.00;;;;;;;14.59;85.38;96519.00;3572028;40;20876;-73
2021/08/03 09:29:01;;;;;;;5.00;1.30;;;;;;;14.69;84.36;96519.03;3566214;39;20474;-70
2021/08/03 09:31:30;;;;;;;4.00;1.00;;;;;;;14.70;83.81;96514.59;3567926;40;20674;-70
2021/08/03 09:33:58;;;;;;;1.53;1.13;;;;;;;14.91;84.00;96517.16;3564574;39;20886;-73
2021/08/03 09:36:50;;;;;;;3.63;1.00;;;;;;;14.83;85.05;96523.13;3562372;40;20712;-70
2021/08/03 09:39:39;;;;;;;1.93;1.30;;;;;;;15.17;83.52;96514.88;3566343;39;20468;-71
2021/08/03 09:42:11;;;;;;;1.00;0.80;;;;;;;14.99;84.30;96512.06;3569244;40;20440;-69
2021/08/03 09:44:46;;;;;;;1.60;1.00;;;;;;;15.37;84.28;96523.66;3561521;39;20459;-72
2021/08/03 09:47:14;;;;;;;1.67;1.10;;;;;;;15.65;81.72;96531.75;3564374;40;20883;-69
2021/08/03 09:49:46;;;;;;;6.73;1.00;;;;;;;15.33;81.83;96540.75;3568731;39;20459;-71
2021/08/03 09:52:16;;;;;;;12.03;7.67;;;;;;;15.45;80.97;96534.38;3567007;40;20434;-69
2021/08/03 09:54:45;;;;;;;3.17;0.93;;;;;;;15.25;82.23;96530.88;3565405;40;20465;-69
2021/08/03 09:57:22;;;;;;;2.00;1.07;;;;;;;15.54;78.70;96528.28;3565899;40;20539;-71
2021/08/03 09:59:51;;;;;;;1.00;0.90;;;;;;;15.76;79.62;96519.25;3563672;39;20991;-69
2021/08/03 10:02:21;;;;;;;1.70;1.00;;;;;;;15.88;77.90;96519.94;3564608;39;20818;-69
2021/08/03 10:04:50;;;;;;;1.30;0.93;;;;;;;16.25;76.75;96519.22;3567772;39;20537;-69
2021/08/03 10:07:18;;;;;;;1.00;0.70;;;;;;;16.41;74.74;96519.44;3566754;40;20546;-72
2021/08/03 10:09:50;;;;;;;1.20;1.00;;;;;;;16.77;76.00;96516.09;3567759;39;20566;-70
2021/08/03 10:12:19;;;;;;;1.13;0.80;;;;;;;17.04;74.81;96501.25;3564243;40;20451;-68
2021/08/03 10:14:48;;;;;;;2.60;0.80;;;;;;;17.10;68.94;96498.00;3563502;39;20815;-71
2021/08/03 10:17:16;;;;;;;1.67;1.00;;;;;;;15.28;74.81;96477.00;3566979;40;20853;-69
2021/08/03 10:19:44;;;;;;;2.43;1.03;;;;;;;14.97;77.52;96463.91;3560837;40;20786;-70
2021/08/03 10:22:28;;;;;;;2.53;0.90;;;;;;;15.65;78.19;96465.75;3566461;40;20753;-72
2021/08/03 10:25:03;;;;;;;2.30;0.90;;;;;;;14.59;80.33;96453.13;3563887;40;20464;-71
2021/08/03 10:27:46;;;;;;;1.97;1.30;;;;;;;14.21;81.70;96451.13;3560090;40;20466;-71
2021/08/03 10:30:37;;;;;;;1.40;0.87;;;;;;;14.67;84.31;96436.63;3567805;40;20868;-72
2021/08/03 10:33:10;;;;;;;2.07;0.90;;;;;;;15.22;81.55;96428.25;3569706;39;20445;-69
2021/08/03 10:35:40;;;;;;;4.47;1.27;;;;;;;15.14;79.82;96439.50;3565361;39;20450;-72
2021/08/03 10:38:13;;;;;;;4.67;1.10;;;;;;;15.11;83.38;96441.56;3567547;39;20985;-69
2021/08/03 10:41:17;;;;;;;5.27;1.00;;;;;;;14.74;84.72;96444.81;3566735;40;20968;-71
2021/08/03 10:43:54;;;;;;;3.37;1.00;;;;;;;15.74;80.62;96457.84;3595012;23;20810;-69
2021/08/03 10:46:36;;;;;;;1.43;1.03;;;;;;;16.51;78.42;96458.59;3555450;40;20446;-71
2021/08/03 10:49:06;;;;;;;1.43;1.20;;;;;;;15.96;80.38;96456.69;3550489;40;20717;-70
2021/08/03 10:51:55;;;;;;;11.33;6.00;;;;;;;17.14;75.14;96442.00;3554824;40;20834;-72
2021/08/03 10:54:30;;;;;;;1.67;1.10;;;;;;;17.70;73.31;96445.31;3548030;40;20487;-71
2021/08/03 10:57:23;;;;;;;3.83;1.03;;;;;;;18.16;71.22;96438.03;3553405;40;20907;-75
2021/08/03 11:00:02;;;;;;;1.40;0.90;;;;;;;17.24;75.24;96427.88;3611414;23;21179;-69
2021/08/03 11:02:45;;;;;;;1.60;1.33;;;;;;;17.19;76.74;96436.28;3560220;40;20480;-72
2021/08/03 11:05:27;;;;;;;3.20;1.40;;;;;;;17.42;79.37;96423.38;3558001;40;20750;-69
2021/08/03 11:07:56;;;;;;;5.23;1.53;;;;;;;18.20;74.71;96427.94;3558507;40;20459;-70
2021/08/03 11:10:33;;;;;;;3.23;1.37;;;;;;;19.08;74.86;96416.22;3568996;40;20488;-70
2021/08/03 11:13:04;;;;;;;2.60;1.50;;;;;;;18.71;67.04;96420.88;3570101;40;20534;-72
2021/08/03 11:15:40;;;;;;;1.30;1.00;;;;;;;18.38;67.92;96411.97;3571537;40;21096;-73
2021/08/03 11:18:14;;;;;;;3.80;1.27;;;;;;;19.12;66.37;96407.75;3569981;40;20825;-70
2021/08/03 11:21:07;;;;;;;2.00;1.10;;;;;;;19.09;68.36;96405.44;3569917;40;20472;-71
2021/08/03 11:23:59;;;;;;;2.47;0.93;;;;;;;18.34;69.46;96402.69;3554243;40;20534;-70
2021/08/03 11:26:29;;;;;;;1.60;1.13;;;;;;;18.46;69.52;96404.06;3570628;40;20448;-71
2021/08/03 11:29:02;;;;;;;2.40;1.10;;;;;;;18.67;67.39;96416.91;3568242;40;20497;-71
2021/08/03 11:31:48;;;;;;;3.00;1.10;;;;;;;18.27;69.25;96410.44;3568170;40;20866;-72
2021/08/03 11:34:19;;;;;;;2.47;1.00;;;;;;;17.46;68.67;96403.56;3569333;40;20853;-72
2021/08/03 11:36:58;;;;;;;1.50;1.20;;;;;;;17.82;67.35;96402.66;3574435;40;20473;-70
2021/08/03 11:39:28;;;;;;;4.50;1.27;;;;;;;18.09;66.82;96409.66;3568237;40;20466;-71
2021/08/03 11:41:57;;;;;;;8.87;5.00;;;;;;;17.59;66.49;96406.66;3560231;40;21009;-70
2021/08/03 11:44:26;;;;;;;1.70;0.90;;;;;;;17.22;67.01;96398.91;3567801;40;20925;-72
2021/08/03 11:46:57;;;;;;;1.50;1.03;;;;;;;17.03;67.96;96399.88;3570608;40;20428;-72
2021/08/03 11:49:30;;;;;;;2.60;1.03;;;;;;;16.98;70.86;96405.63;3572100;40;20705;-71
2021/08/03 11:52:16;;;;;;;2.57;1.23;;;;;;;17.09;68.59;96404.59;3572079;40;20458;-70
2021/08/03 11:54:47;;;;;;;1.80;1.10;;;;;;;17.25;69.79;96403.06;3569021;39;20457;-72